This is the latest recevied weather packets stored in our database for station/object KC4JY. If no packets are shown the sender has not sent any weather packets the latest 10 day(s).
| Time | Temp. | Humidity | Pressure | Rain* | Wind** | Luminosity | Snow |
|---|---|---|---|---|---|---|---|
| 1777901420 | 17.22° C | 68% | 1017.6 hPa | 0 mm | - | - | - |
| 1777900558 | 16.67° C | 71% | 1017.6 hPa | 0 mm | - | - | - |
| 1777899654 | 15.56° C | 73% | 1017.8 hPa | 0 mm | - | - | - |
| 1777898733 | 15° C | 76% | 1017.8 hPa | 0 mm | - | - | - |
| 1777897834 | 13.89° C | 81% | 1017.9 hPa | 0 mm | - | - | - |
| 1777896916 | 12.78° C | 83% | 1017.8 hPa | 0 mm | - | - | - |
| 1777896002 | 11.67° C | 84% | 1017.9 hPa | 0 mm | - | - | - |
| 1777895140 | 10.56° C | 86% | 1018.1 hPa | 0 mm | - | - | - |
| 1777894246 | 10° C | 88% | 1018.1 hPa | 0 mm | - | - | - |
| 1777893323 | 9.44° C | 88% | 1018.1 hPa | 0 mm | - | - | - |
| 1777892420 | 8.89° C | 89% | 1018.1 hPa | 0 mm | - | - | - |
| 1777891516 | 8.33° C | 88% | 1018.1 hPa | 0 mm | - | - | - |
| 1777890619 | 8.89° C | 88% | 1017.9 hPa | 0 mm | - | - | - |
| 1777889713 | 8.89° C | 88% | 1017.8 hPa | 0 mm | - | - | - |
| 1777888814 | 8.89° C | 88% | 1017.8 hPa | 0 mm | - | - | - |
| 1777887912 | 8.89° C | 88% | 1017.8 hPa | 0 mm | - | - | - |
| 1777887011 | 8.89° C | 87% | 1017.9 hPa | 0 mm | - | - | - |
| 1777886107 | 8.89° C | 87% | 1018 hPa | 0 mm | - | - | - |
| 1777885206 | 8.89° C | 86% | 1018 hPa | 0 mm | - | - | - |
| 1777884352 | 8.89° C | 86% | 1018.1 hPa | 0 mm | - | - | - |
| 1777883447 | 8.89° C | 86% | 1018 hPa | 0 mm | - | - | - |
| 1777882535 | 8.89° C | 86% | 1017.9 hPa | 0 mm | - | - | - |
| 1777881627 | 9.44° C | 85% | 1017.8 hPa | 0 mm | - | - | - |
| 1777880707 | 9.44° C | 84% | 1017.8 hPa | 0 mm | - | - | - |
| 1777879807 | 9.44° C | 83% | 1017.8 hPa | 0 mm | - | - | - |
* Rain latest hour (hover to see other rain measurements)
** Current wind speed in m/s (hover to see current wind gust speed)